<?xml version="1.0" encoding="UTF-8" standalone="no" ?>
<gpx xmlns="http://www.topografix.com/GPX/1/1" xmlns:xsi="http://www.w3.org/2001/XMLSchema-instance" xsi:schemaLocation="http://www.topografix.com/GPX/1/1 http://www.topografix.com/GPX/1/1/gpx.xsd" version="1.1" creator="VisuGPX - https://www.visugpx.com">
  <metadata>
    <name>Circuit du 03-04-2013</name>
    <desc><![CDATA[Circuit du 03-04-2013]]></desc>
  </metadata>
  <wpt lat="45.38402" lon="3.75234">
    <ele>663.40002441406</ele>
    <name><![CDATA[Start]]></name>
  </wpt>
  <wpt lat="45.38369" lon="3.75154">
    <ele>654.40002441406</ele>
    <name><![CDATA[End]]></name>
  </wpt>
  <trk>
    <name><![CDATA[Circuit du 03-04-2013_1]]></name>
    <trkseg>
      <trkpt lat="45.38402" lon="3.75234">
        <ele>663.40002441406</ele>
        <time>2013-04-03T16:35:32Z</time>
      </trkpt>
      <trkpt lat="45.38408" lon="3.75245">
        <ele>651.90002441406</ele>
        <time>2013-04-03T16:35:34Z</time>
      </trkpt>
      <trkpt lat="45.38406" lon="3.75251">
        <ele>649.29998779297</ele>
        <time>2013-04-03T16:35:37Z</time>
      </trkpt>
      <trkpt lat="45.3841" lon="3.75249">
        <ele>647.79998779297</ele>
        <time>2013-04-03T16:35:38Z</time>
      </trkpt>
      <trkpt lat="45.3841" lon="3.75256">
        <ele>649.5</ele>
        <time>2013-04-03T16:35:40Z</time>
      </trkpt>
      <trkpt lat="45.38408" lon="3.75262">
        <ele>650.59997558594</ele>
        <time>2013-04-03T16:35:42Z</time>
      </trkpt>
      <trkpt lat="45.38413" lon="3.7528">
        <ele>656.70001220703</ele>
        <time>2013-04-03T16:35:49Z</time>
      </trkpt>
      <trkpt lat="45.38416" lon="3.75288">
        <ele>654</ele>
        <time>2013-04-03T16:35:53Z</time>
      </trkpt>
      <trkpt lat="45.3842" lon="3.75292">
        <ele>654.20001220703</ele>
        <time>2013-04-03T16:35:55Z</time>
      </trkpt>
      <trkpt lat="45.38419" lon="3.753">
        <ele>658.24645996094</ele>
        <time>2013-04-03T16:35:56Z</time>
      </trkpt>
      <trkpt lat="45.38422" lon="3.75308">
        <ele>660.59997558594</ele>
        <time>2013-04-03T16:35:58Z</time>
      </trkpt>
      <trkpt lat="45.38421" lon="3.75315">
        <ele>664.09997558594</ele>
        <time>2013-04-03T16:36:00Z</time>
      </trkpt>
      <trkpt lat="45.38422" lon="3.75325">
        <ele>664</ele>
        <time>2013-04-03T16:36:03Z</time>
      </trkpt>
      <trkpt lat="45.38425" lon="3.75333">
        <ele>664.79998779297</ele>
        <time>2013-04-03T16:36:07Z</time>
      </trkpt>
      <trkpt lat="45.3843" lon="3.75339">
        <ele>663.59997558594</ele>
        <time>2013-04-03T16:36:10Z</time>
      </trkpt>
      <trkpt lat="45.38433" lon="3.75346">
        <ele>664.59997558594</ele>
        <time>2013-04-03T16:36:12Z</time>
      </trkpt>
      <trkpt lat="45.38437" lon="3.75349">
        <ele>664.5</ele>
        <time>2013-04-03T16:36:14Z</time>
      </trkpt>
      <trkpt lat="45.3844" lon="3.75355">
        <ele>662.79998779297</ele>
        <time>2013-04-03T16:36:17Z</time>
      </trkpt>
      <trkpt lat="45.38443" lon="3.7537">
        <ele>661.70001220703</ele>
        <time>2013-04-03T16:36:22Z</time>
      </trkpt>
      <trkpt lat="45.38444" lon="3.75378">
        <ele>661.90002441406</ele>
        <time>2013-04-03T16:36:26Z</time>
      </trkpt>
      <trkpt lat="45.38446" lon="3.75383">
        <ele>661</ele>
        <time>2013-04-03T16:36:29Z</time>
      </trkpt>
      <trkpt lat="45.38446" lon="3.75391">
        <ele>660.29998779297</ele>
        <time>2013-04-03T16:36:31Z</time>
      </trkpt>
      <trkpt lat="45.38447" lon="3.75402">
        <ele>656.5</ele>
        <time>2013-04-03T16:36:35Z</time>
      </trkpt>
      <trkpt lat="45.38452" lon="3.75408">
        <ele>651.59997558594</ele>
        <time>2013-04-03T16:36:38Z</time>
      </trkpt>
      <trkpt lat="45.38456" lon="3.75416">
        <ele>651.70001220703</ele>
        <time>2013-04-03T16:36:43Z</time>
      </trkpt>
      <trkpt lat="45.38456" lon="3.75424">
        <ele>652.89141845703</ele>
        <time>2013-04-03T16:36:44Z</time>
      </trkpt>
      <trkpt lat="45.3846" lon="3.75431">
        <ele>650.20001220703</ele>
        <time>2013-04-03T16:36:47Z</time>
      </trkpt>
      <trkpt lat="45.38461" lon="3.75439">
        <ele>648</ele>
        <time>2013-04-03T16:36:49Z</time>
      </trkpt>
      <trkpt lat="45.38463" lon="3.75447">
        <ele>648.70001220703</ele>
        <time>2013-04-03T16:36:52Z</time>
      </trkpt>
      <trkpt lat="45.38469" lon="3.75466">
        <ele>651.20001220703</ele>
        <time>2013-04-03T16:37:01Z</time>
      </trkpt>
      <trkpt lat="45.38473" lon="3.75462">
        <ele>650.29998779297</ele>
        <time>2013-04-03T16:37:02Z</time>
      </trkpt>
      <trkpt lat="45.38474" lon="3.75468">
        <ele>651.09997558594</ele>
        <time>2013-04-03T16:37:03Z</time>
      </trkpt>
      <trkpt lat="45.38474" lon="3.75475">
        <ele>649.90002441406</ele>
        <time>2013-04-03T16:37:08Z</time>
      </trkpt>
      <trkpt lat="45.38472" lon="3.75485">
        <ele>652.20001220703</ele>
        <time>2013-04-03T16:37:10Z</time>
      </trkpt>
      <trkpt lat="45.38476" lon="3.75492">
        <ele>652</ele>
        <time>2013-04-03T16:37:12Z</time>
      </trkpt>
      <trkpt lat="45.3848" lon="3.75502">
        <ele>650.79998779297</ele>
        <time>2013-04-03T16:37:15Z</time>
      </trkpt>
      <trkpt lat="45.38485" lon="3.75516">
        <ele>656.59997558594</ele>
        <time>2013-04-03T16:37:23Z</time>
      </trkpt>
      <trkpt lat="45.38488" lon="3.75536">
        <ele>656.29998779297</ele>
        <time>2013-04-03T16:37:30Z</time>
      </trkpt>
      <trkpt lat="45.38489" lon="3.75547">
        <ele>655.79998779297</ele>
        <time>2013-04-03T16:37:33Z</time>
      </trkpt>
      <trkpt lat="45.3849" lon="3.75555">
        <ele>655.29998779297</ele>
        <time>2013-04-03T16:37:36Z</time>
      </trkpt>
      <trkpt lat="45.38492" lon="3.75562">
        <ele>656.90002441406</ele>
        <time>2013-04-03T16:37:40Z</time>
      </trkpt>
      <trkpt lat="45.38495" lon="3.7557">
        <ele>657.40002441406</ele>
        <time>2013-04-03T16:37:45Z</time>
      </trkpt>
      <trkpt lat="45.38496" lon="3.75578">
        <ele>654.5</ele>
        <time>2013-04-03T16:37:49Z</time>
      </trkpt>
      <trkpt lat="45.38501" lon="3.75583">
        <ele>657.79998779297</ele>
        <time>2013-04-03T16:37:52Z</time>
      </trkpt>
      <trkpt lat="45.385" lon="3.75589">
        <ele>658</ele>
        <time>2013-04-03T16:37:54Z</time>
      </trkpt>
      <trkpt lat="45.38504" lon="3.756">
        <ele>657.20001220703</ele>
        <time>2013-04-03T16:37:57Z</time>
      </trkpt>
      <trkpt lat="45.38505" lon="3.75609">
        <ele>656.5</ele>
        <time>2013-04-03T16:37:59Z</time>
      </trkpt>
      <trkpt lat="45.38506" lon="3.75622">
        <ele>656</ele>
        <time>2013-04-03T16:38:03Z</time>
      </trkpt>
      <trkpt lat="45.38508" lon="3.75628">
        <ele>657.40002441406</ele>
        <time>2013-04-03T16:38:06Z</time>
      </trkpt>
      <trkpt lat="45.38506" lon="3.75638">
        <ele>657</ele>
        <time>2013-04-03T16:38:11Z</time>
      </trkpt>
      <trkpt lat="45.38509" lon="3.75646">
        <ele>658.70001220703</ele>
        <time>2013-04-03T16:38:15Z</time>
      </trkpt>
      <trkpt lat="45.38512" lon="3.75655">
        <ele>657.5</ele>
        <time>2013-04-03T16:38:19Z</time>
      </trkpt>
      <trkpt lat="45.38517" lon="3.75673">
        <ele>660.5</ele>
        <time>2013-04-03T16:38:26Z</time>
      </trkpt>
      <trkpt lat="45.38522" lon="3.75678">
        <ele>659.59997558594</ele>
        <time>2013-04-03T16:38:29Z</time>
      </trkpt>
      <trkpt lat="45.3853" lon="3.7568">
        <ele>659</ele>
        <time>2013-04-03T16:38:33Z</time>
      </trkpt>
      <trkpt lat="45.38535" lon="3.75676">
        <ele>658.70001220703</ele>
        <time>2013-04-03T16:38:37Z</time>
      </trkpt>
      <trkpt lat="45.38541" lon="3.75674">
        <ele>658.20001220703</ele>
        <time>2013-04-03T16:38:39Z</time>
      </trkpt>
      <trkpt lat="45.38544" lon="3.75678">
        <ele>659.40002441406</ele>
        <time>2013-04-03T16:38:41Z</time>
      </trkpt>
      <trkpt lat="45.38553" lon="3.75676">
        <ele>656.40002441406</ele>
        <time>2013-04-03T16:38:44Z</time>
      </trkpt>
      <trkpt lat="45.3856" lon="3.75678">
        <ele>658.29998779297</ele>
        <time>2013-04-03T16:38:48Z</time>
      </trkpt>
      <trkpt lat="45.38566" lon="3.75678">
        <ele>660.09997558594</ele>
        <time>2013-04-03T16:38:50Z</time>
      </trkpt>
      <trkpt lat="45.38571" lon="3.75677">
        <ele>660.5</ele>
        <time>2013-04-03T16:38:53Z</time>
      </trkpt>
      <trkpt lat="45.38577" lon="3.75679">
        <ele>661.70001220703</ele>
        <time>2013-04-03T16:38:56Z</time>
      </trkpt>
      <trkpt lat="45.38581" lon="3.75682">
        <ele>660.20001220703</ele>
        <time>2013-04-03T16:38:59Z</time>
      </trkpt>
      <trkpt lat="45.38584" lon="3.75689">
        <ele>660.59997558594</ele>
        <time>2013-04-03T16:39:04Z</time>
      </trkpt>
      <trkpt lat="45.38592" lon="3.75692">
        <ele>660.5</ele>
        <time>2013-04-03T16:39:08Z</time>
      </trkpt>
      <trkpt lat="45.38598" lon="3.7569">
        <ele>656.09997558594</ele>
        <time>2013-04-03T16:39:11Z</time>
      </trkpt>
      <trkpt lat="45.38602" lon="3.75694">
        <ele>656.29998779297</ele>
        <time>2013-04-03T16:39:12Z</time>
      </trkpt>
      <trkpt lat="45.38605" lon="3.75699">
        <ele>656.20001220703</ele>
        <time>2013-04-03T16:39:16Z</time>
      </trkpt>
      <trkpt lat="45.38612" lon="3.75708">
        <ele>656.5</ele>
        <time>2013-04-03T16:39:18Z</time>
      </trkpt>
      <trkpt lat="45.38612" lon="3.75714">
        <ele>658.90002441406</ele>
        <time>2013-04-03T16:39:20Z</time>
      </trkpt>
      <trkpt lat="45.38618" lon="3.75719">
        <ele>659.79998779297</ele>
        <time>2013-04-03T16:39:23Z</time>
      </trkpt>
      <trkpt lat="45.38623" lon="3.75722">
        <ele>655.90002441406</ele>
        <time>2013-04-03T16:39:27Z</time>
      </trkpt>
      <trkpt lat="45.3863" lon="3.75727">
        <ele>661.20001220703</ele>
        <time>2013-04-03T16:39:32Z</time>
      </trkpt>
      <trkpt lat="45.38633" lon="3.75733">
        <ele>661.59997558594</ele>
        <time>2013-04-03T16:39:35Z</time>
      </trkpt>
      <trkpt lat="45.38639" lon="3.75737">
        <ele>657.79998779297</ele>
        <time>2013-04-03T16:39:38Z</time>
      </trkpt>
      <trkpt lat="45.38645" lon="3.75743">
        <ele>655.59997558594</ele>
        <time>2013-04-03T16:39:41Z</time>
      </trkpt>
      <trkpt lat="45.38649" lon="3.75749">
        <ele>654</ele>
        <time>2013-04-03T16:39:44Z</time>
      </trkpt>
      <trkpt lat="45.38656" lon="3.75755">
        <ele>653.59997558594</ele>
        <time>2013-04-03T16:39:47Z</time>
      </trkpt>
      <trkpt lat="45.38662" lon="3.75758">
        <ele>655</ele>
        <time>2013-04-03T16:39:49Z</time>
      </trkpt>
      <trkpt lat="45.38664" lon="3.75765">
        <ele>655.90002441406</ele>
        <time>2013-04-03T16:39:53Z</time>
      </trkpt>
      <trkpt lat="45.38667" lon="3.75772">
        <ele>656.59997558594</ele>
        <time>2013-04-03T16:39:57Z</time>
      </trkpt>
      <trkpt lat="45.3867" lon="3.75779">
        <ele>657.90002441406</ele>
        <time>2013-04-03T16:40:00Z</time>
      </trkpt>
      <trkpt lat="45.38675" lon="3.75784">
        <ele>657.09997558594</ele>
        <time>2013-04-03T16:40:03Z</time>
      </trkpt>
      <trkpt lat="45.38679" lon="3.75789">
        <ele>656</ele>
        <time>2013-04-03T16:40:05Z</time>
      </trkpt>
      <trkpt lat="45.38683" lon="3.75793">
        <ele>656.40002441406</ele>
        <time>2013-04-03T16:40:08Z</time>
      </trkpt>
      <trkpt lat="45.38688" lon="3.75801">
        <ele>655.09997558594</ele>
        <time>2013-04-03T16:40:12Z</time>
      </trkpt>
      <trkpt lat="45.38692" lon="3.75806">
        <ele>654.20001220703</ele>
        <time>2013-04-03T16:40:14Z</time>
      </trkpt>
      <trkpt lat="45.38695" lon="3.75813">
        <ele>652.29998779297</ele>
        <time>2013-04-03T16:40:18Z</time>
      </trkpt>
      <trkpt lat="45.38699" lon="3.75816">
        <ele>652.59997558594</ele>
        <time>2013-04-03T16:40:21Z</time>
      </trkpt>
      <trkpt lat="45.38707" lon="3.75827">
        <ele>651.70001220703</ele>
        <time>2013-04-03T16:40:27Z</time>
      </trkpt>
      <trkpt lat="45.38716" lon="3.75837">
        <ele>648.40002441406</ele>
        <time>2013-04-03T16:40:33Z</time>
      </trkpt>
      <trkpt lat="45.38717" lon="3.75845">
        <ele>648.90002441406</ele>
        <time>2013-04-03T16:40:35Z</time>
      </trkpt>
      <trkpt lat="45.38723" lon="3.75857">
        <ele>650.79998779297</ele>
        <time>2013-04-03T16:40:39Z</time>
      </trkpt>
      <trkpt lat="45.3873" lon="3.75864">
        <ele>647.90002441406</ele>
        <time>2013-04-03T16:40:46Z</time>
      </trkpt>
      <trkpt lat="45.38733" lon="3.75875">
        <ele>649.59997558594</ele>
        <time>2013-04-03T16:40:50Z</time>
      </trkpt>
      <trkpt lat="45.38736" lon="3.75883">
        <ele>649.79998779297</ele>
        <time>2013-04-03T16:40:53Z</time>
      </trkpt>
      <trkpt lat="45.3874" lon="3.75886">
        <ele>650.40002441406</ele>
        <time>2013-04-03T16:40:55Z</time>
      </trkpt>
      <trkpt lat="45.38749" lon="3.7589">
        <ele>649</ele>
        <time>2013-04-03T16:41:00Z</time>
      </trkpt>
      <trkpt lat="45.38755" lon="3.75892">
        <ele>646.70001220703</ele>
        <time>2013-04-03T16:41:03Z</time>
      </trkpt>
      <trkpt lat="45.38766" lon="3.75902">
        <ele>648.79998779297</ele>
        <time>2013-04-03T16:41:10Z</time>
      </trkpt>
      <trkpt lat="45.38766" lon="3.75915">
        <ele>650.09997558594</ele>
        <time>2013-04-03T16:41:12Z</time>
      </trkpt>
      <trkpt lat="45.38771" lon="3.75916">
        <ele>650.5</ele>
        <time>2013-04-03T16:41:14Z</time>
      </trkpt>
      <trkpt lat="45.38775" lon="3.75922">
        <ele>655.5</ele>
        <time>2013-04-03T16:41:16Z</time>
      </trkpt>
      <trkpt lat="45.38781" lon="3.75922">
        <ele>656.70001220703</ele>
        <time>2013-04-03T16:41:19Z</time>
      </trkpt>
      <trkpt lat="45.38789" lon="3.7592">
        <ele>656.09997558594</ele>
        <time>2013-04-03T16:41:22Z</time>
      </trkpt>
      <trkpt lat="45.38795" lon="3.75921">
        <ele>655.5</ele>
        <time>2013-04-03T16:41:26Z</time>
      </trkpt>
      <trkpt lat="45.38808" lon="3.75925">
        <ele>659.09997558594</ele>
        <time>2013-04-03T16:41:32Z</time>
      </trkpt>
      <trkpt lat="45.38812" lon="3.75926">
        <ele>659.09997558594</ele>
        <time>2013-04-03T16:41:35Z</time>
      </trkpt>
      <trkpt lat="45.38814" lon="3.75919">
        <ele>658.20001220703</ele>
        <time>2013-04-03T16:41:37Z</time>
      </trkpt>
      <trkpt lat="45.38819" lon="3.75922">
        <ele>658.5</ele>
        <time>2013-04-03T16:41:39Z</time>
      </trkpt>
      <trkpt lat="45.38825" lon="3.75922">
        <ele>657.20001220703</ele>
        <time>2013-04-03T16:41:42Z</time>
      </trkpt>
      <trkpt lat="45.38829" lon="3.75924">
        <ele>657.5</ele>
        <time>2013-04-03T16:41:43Z</time>
      </trkpt>
      <trkpt lat="45.38838" lon="3.75928">
        <ele>653.90002441406</ele>
        <time>2013-04-03T16:41:48Z</time>
      </trkpt>
      <trkpt lat="45.38843" lon="3.75926">
        <ele>653.59997558594</ele>
        <time>2013-04-03T16:41:52Z</time>
      </trkpt>
      <trkpt lat="45.38848" lon="3.75926">
        <ele>654.40002441406</ele>
        <time>2013-04-03T16:41:55Z</time>
      </trkpt>
      <trkpt lat="45.38855" lon="3.75927">
        <ele>653.70001220703</ele>
        <time>2013-04-03T16:41:58Z</time>
      </trkpt>
      <trkpt lat="45.38862" lon="3.7593">
        <ele>653.29998779297</ele>
        <time>2013-04-03T16:42:02Z</time>
      </trkpt>
      <trkpt lat="45.38867" lon="3.75934">
        <ele>654.5</ele>
        <time>2013-04-03T16:42:03Z</time>
      </trkpt>
      <trkpt lat="45.38872" lon="3.75934">
        <ele>654.70001220703</ele>
        <time>2013-04-03T16:42:05Z</time>
      </trkpt>
      <trkpt lat="45.38876" lon="3.7593">
        <ele>650.90002441406</ele>
        <time>2013-04-03T16:42:07Z</time>
      </trkpt>
      <trkpt lat="45.38882" lon="3.75929">
        <ele>652</ele>
        <time>2013-04-03T16:42:09Z</time>
      </trkpt>
      <trkpt lat="45.38888" lon="3.75928">
        <ele>651</ele>
        <time>2013-04-03T16:42:12Z</time>
      </trkpt>
      <trkpt lat="45.38904" lon="3.75931">
        <ele>648.40002441406</ele>
        <time>2013-04-03T16:42:20Z</time>
      </trkpt>
      <trkpt lat="45.38911" lon="3.75925">
        <ele>649.29998779297</ele>
        <time>2013-04-03T16:42:23Z</time>
      </trkpt>
      <trkpt lat="45.3891" lon="3.75918">
        <ele>647.79998779297</ele>
        <time>2013-04-03T16:42:25Z</time>
      </trkpt>
      <trkpt lat="45.38915" lon="3.7592">
        <ele>651.40002441406</ele>
        <time>2013-04-03T16:42:27Z</time>
      </trkpt>
      <trkpt lat="45.3892" lon="3.7592">
        <ele>649.5</ele>
        <time>2013-04-03T16:42:29Z</time>
      </trkpt>
      <trkpt lat="45.38926" lon="3.75918">
        <ele>649.09997558594</ele>
        <time>2013-04-03T16:42:31Z</time>
      </trkpt>
      <trkpt lat="45.38931" lon="3.75926">
        <ele>648.29998779297</ele>
        <time>2013-04-03T16:42:37Z</time>
      </trkpt>
      <trkpt lat="45.38939" lon="3.75926">
        <ele>655.09997558594</ele>
        <time>2013-04-03T16:42:40Z</time>
      </trkpt>
      <trkpt lat="45.38944" lon="3.75927">
        <ele>664.29998779297</ele>
        <time>2013-04-03T16:42:43Z</time>
      </trkpt>
      <trkpt lat="45.38949" lon="3.75929">
        <ele>664.09997558594</ele>
        <time>2013-04-03T16:42:45Z</time>
      </trkpt>
      <trkpt lat="45.38953" lon="3.75932">
        <ele>665.79998779297</ele>
        <time>2013-04-03T16:42:48Z</time>
      </trkpt>
      <trkpt lat="45.38959" lon="3.75938">
        <ele>665.79998779297</ele>
        <time>2013-04-03T16:42:51Z</time>
      </trkpt>
      <trkpt lat="45.38968" lon="3.75941">
        <ele>666.20001220703</ele>
        <time>2013-04-03T16:42:56Z</time>
      </trkpt>
      <trkpt lat="45.38975" lon="3.75946">
        <ele>664</ele>
        <time>2013-04-03T16:42:59Z</time>
      </trkpt>
      <trkpt lat="45.3898" lon="3.75943">
        <ele>664.5</ele>
        <time>2013-04-03T16:43:00Z</time>
      </trkpt>
      <trkpt lat="45.38987" lon="3.75943">
        <ele>662.20001220703</ele>
        <time>2013-04-03T16:43:03Z</time>
      </trkpt>
      <trkpt lat="45.38995" lon="3.75946">
        <ele>660.09997558594</ele>
        <time>2013-04-03T16:43:06Z</time>
      </trkpt>
      <trkpt lat="45.39001" lon="3.75948">
        <ele>659.09997558594</ele>
        <time>2013-04-03T16:43:09Z</time>
      </trkpt>
      <trkpt lat="45.39008" lon="3.75949">
        <ele>654.90002441406</ele>
        <time>2013-04-03T16:43:12Z</time>
      </trkpt>
      <trkpt lat="45.39012" lon="3.75951">
        <ele>653.70001220703</ele>
        <time>2013-04-03T16:43:14Z</time>
      </trkpt>
      <trkpt lat="45.39019" lon="3.75953">
        <ele>653.90002441406</ele>
        <time>2013-04-03T16:43:17Z</time>
      </trkpt>
      <trkpt lat="45.39025" lon="3.75956">
        <ele>653.79998779297</ele>
        <time>2013-04-03T16:43:20Z</time>
      </trkpt>
      <trkpt lat="45.39031" lon="3.75954">
        <ele>652.79998779297</ele>
        <time>2013-04-03T16:43:23Z</time>
      </trkpt>
      <trkpt lat="45.3904" lon="3.75955">
        <ele>653.90002441406</ele>
        <time>2013-04-03T16:43:28Z</time>
      </trkpt>
      <trkpt lat="45.39048" lon="3.75956">
        <ele>656.20001220703</ele>
        <time>2013-04-03T16:43:30Z</time>
      </trkpt>
      <trkpt lat="45.39053" lon="3.75953">
        <ele>656.5</ele>
        <time>2013-04-03T16:43:32Z</time>
      </trkpt>
      <trkpt lat="45.39049" lon="3.75949">
        <ele>655.70001220703</ele>
        <time>2013-04-03T16:43:33Z</time>
      </trkpt>
      <trkpt lat="45.39051" lon="3.75943">
        <ele>657.70001220703</ele>
        <time>2013-04-03T16:43:36Z</time>
      </trkpt>
      <trkpt lat="45.39052" lon="3.75936">
        <ele>658.09997558594</ele>
        <time>2013-04-03T16:43:41Z</time>
      </trkpt>
      <trkpt lat="45.39063" lon="3.75926">
        <ele>653.29998779297</ele>
        <time>2013-04-03T16:43:50Z</time>
      </trkpt>
      <trkpt lat="45.39066" lon="3.7592">
        <ele>652.59997558594</ele>
        <time>2013-04-03T16:43:53Z</time>
      </trkpt>
      <trkpt lat="45.3907" lon="3.75915">
        <ele>652.20001220703</ele>
        <time>2013-04-03T16:44:00Z</time>
      </trkpt>
      <trkpt lat="45.39074" lon="3.75913">
        <ele>651.40002441406</ele>
        <time>2013-04-03T16:44:04Z</time>
      </trkpt>
      <trkpt lat="45.39087" lon="3.75904">
        <ele>653.59997558594</ele>
        <time>2013-04-03T16:44:16Z</time>
      </trkpt>
      <trkpt lat="45.39091" lon="3.759">
        <ele>651.09997558594</ele>
        <time>2013-04-03T16:44:22Z</time>
      </trkpt>
      <trkpt lat="45.39097" lon="3.75898">
        <ele>652</ele>
        <time>2013-04-03T16:44:26Z</time>
      </trkpt>
      <trkpt lat="45.39102" lon="3.75896">
        <ele>651.70001220703</ele>
        <time>2013-04-03T16:44:29Z</time>
      </trkpt>
      <trkpt lat="45.39105" lon="3.7589">
        <ele>650.79998779297</ele>
        <time>2013-04-03T16:44:34Z</time>
      </trkpt>
      <trkpt lat="45.39109" lon="3.75887">
        <ele>650</ele>
        <time>2013-04-03T16:44:38Z</time>
      </trkpt>
      <trkpt lat="45.39113" lon="3.75885">
        <ele>649.5</ele>
        <time>2013-04-03T16:44:45Z</time>
      </trkpt>
      <trkpt lat="45.39121" lon="3.75878">
        <ele>647.29998779297</ele>
        <time>2013-04-03T16:44:51Z</time>
      </trkpt>
      <trkpt lat="45.39126" lon="3.75874">
        <ele>648.29998779297</ele>
        <time>2013-04-03T16:44:55Z</time>
      </trkpt>
      <trkpt lat="45.39131" lon="3.75871">
        <ele>647.90002441406</ele>
        <time>2013-04-03T16:44:57Z</time>
      </trkpt>
      <trkpt lat="45.39136" lon="3.75871">
        <ele>650.40002441406</ele>
        <time>2013-04-03T16:45:01Z</time>
      </trkpt>
      <trkpt lat="45.39141" lon="3.75867">
        <ele>651.09997558594</ele>
        <time>2013-04-03T16:45:05Z</time>
      </trkpt>
      <trkpt lat="45.39147" lon="3.75865">
        <ele>650.09997558594</ele>
        <time>2013-04-03T16:45:08Z</time>
      </trkpt>
      <trkpt lat="45.39153" lon="3.75862">
        <ele>651.09997558594</ele>
        <time>2013-04-03T16:45:12Z</time>
      </trkpt>
      <trkpt lat="45.39159" lon="3.75856">
        <ele>649.90002441406</ele>
        <time>2013-04-03T16:45:19Z</time>
      </trkpt>
      <trkpt lat="45.39163" lon="3.75853">
        <ele>651.20001220703</ele>
        <time>2013-04-03T16:45:23Z</time>
      </trkpt>
      <trkpt lat="45.39167" lon="3.7585">
        <ele>650.29998779297</ele>
        <time>2013-04-03T16:45:26Z</time>
      </trkpt>
      <trkpt lat="45.39172" lon="3.75848">
        <ele>649.29998779297</ele>
        <time>2013-04-03T16:45:30Z</time>
      </trkpt>
      <trkpt lat="45.39177" lon="3.75845">
        <ele>650.20001220703</ele>
        <time>2013-04-03T16:45:34Z</time>
      </trkpt>
      <trkpt lat="45.39182" lon="3.75841">
        <ele>651.40002441406</ele>
        <time>2013-04-03T16:45:38Z</time>
      </trkpt>
      <trkpt lat="45.39186" lon="3.75837">
        <ele>651</ele>
        <time>2013-04-03T16:45:43Z</time>
      </trkpt>
      <trkpt lat="45.39191" lon="3.75835">
        <ele>652.09997558594</ele>
        <time>2013-04-03T16:45:46Z</time>
      </trkpt>
      <trkpt lat="45.39198" lon="3.75827">
        <ele>647.79998779297</ele>
        <time>2013-04-03T16:45:54Z</time>
      </trkpt>
      <trkpt lat="45.39202" lon="3.75821">
        <ele>648.20001220703</ele>
        <time>2013-04-03T16:45:57Z</time>
      </trkpt>
      <trkpt lat="45.39205" lon="3.75813">
        <ele>648.79998779297</ele>
        <time>2013-04-03T16:46:01Z</time>
      </trkpt>
      <trkpt lat="45.39208" lon="3.75804">
        <ele>648.70001220703</ele>
        <time>2013-04-03T16:46:04Z</time>
      </trkpt>
      <trkpt lat="45.39208" lon="3.75797">
        <ele>648.40002441406</ele>
        <time>2013-04-03T16:46:06Z</time>
      </trkpt>
      <trkpt lat="45.39209" lon="3.7579">
        <ele>649.20001220703</ele>
        <time>2013-04-03T16:46:08Z</time>
      </trkpt>
      <trkpt lat="45.3921" lon="3.75782">
        <ele>649.59997558594</ele>
        <time>2013-04-03T16:46:11Z</time>
      </trkpt>
      <trkpt lat="45.39211" lon="3.75773">
        <ele>649.79998779297</ele>
        <time>2013-04-03T16:46:14Z</time>
      </trkpt>
      <trkpt lat="45.39211" lon="3.75766">
        <ele>648.40002441406</ele>
        <time>2013-04-03T16:46:17Z</time>
      </trkpt>
      <trkpt lat="45.39208" lon="3.75749">
        <ele>646.5</ele>
        <time>2013-04-03T16:46:24Z</time>
      </trkpt>
      <trkpt lat="45.39207" lon="3.75741">
        <ele>646.20001220703</ele>
        <time>2013-04-03T16:46:27Z</time>
      </trkpt>
      <trkpt lat="45.39207" lon="3.75731">
        <ele>647.20001220703</ele>
        <time>2013-04-03T16:46:30Z</time>
      </trkpt>
      <trkpt lat="45.39206" lon="3.75717">
        <ele>647.90002441406</ele>
        <time>2013-04-03T16:46:34Z</time>
      </trkpt>
      <trkpt lat="45.39205" lon="3.75711">
        <ele>649.70001220703</ele>
        <time>2013-04-03T16:46:37Z</time>
      </trkpt>
      <trkpt lat="45.39206" lon="3.75703">
        <ele>649.20001220703</ele>
        <time>2013-04-03T16:46:39Z</time>
      </trkpt>
      <trkpt lat="45.39207" lon="3.75696">
        <ele>649.09997558594</ele>
        <time>2013-04-03T16:46:42Z</time>
      </trkpt>
      <trkpt lat="45.39205" lon="3.75688">
        <ele>646.5</ele>
        <time>2013-04-03T16:46:46Z</time>
      </trkpt>
      <trkpt lat="45.39206" lon="3.75669">
        <ele>641.90002441406</ele>
        <time>2013-04-03T16:46:52Z</time>
      </trkpt>
      <trkpt lat="45.39209" lon="3.75664">
        <ele>642.29998779297</ele>
        <time>2013-04-03T16:46:55Z</time>
      </trkpt>
      <trkpt lat="45.39211" lon="3.75655">
        <ele>642.59997558594</ele>
        <time>2013-04-03T16:46:58Z</time>
      </trkpt>
      <trkpt lat="45.39212" lon="3.75649">
        <ele>643.09997558594</ele>
        <time>2013-04-03T16:47:00Z</time>
      </trkpt>
      <trkpt lat="45.39212" lon="3.7564">
        <ele>645.09997558594</ele>
        <time>2013-04-03T16:47:03Z</time>
      </trkpt>
      <trkpt lat="45.39213" lon="3.75634">
        <ele>645.90002441406</ele>
        <time>2013-04-03T16:47:05Z</time>
      </trkpt>
      <trkpt lat="45.39213" lon="3.75625">
        <ele>646.29998779297</ele>
        <time>2013-04-03T16:47:08Z</time>
      </trkpt>
      <trkpt lat="45.39216" lon="3.75618">
        <ele>645.5</ele>
        <time>2013-04-03T16:47:10Z</time>
      </trkpt>
      <trkpt lat="45.39218" lon="3.75612">
        <ele>643.79998779297</ele>
        <time>2013-04-03T16:47:13Z</time>
      </trkpt>
      <trkpt lat="45.39222" lon="3.75601">
        <ele>642.09997558594</ele>
        <time>2013-04-03T16:47:18Z</time>
      </trkpt>
      <trkpt lat="45.39224" lon="3.75593">
        <ele>641</ele>
        <time>2013-04-03T16:47:21Z</time>
      </trkpt>
      <trkpt lat="45.39227" lon="3.75582">
        <ele>640.5</ele>
        <time>2013-04-03T16:47:24Z</time>
      </trkpt>
      <trkpt lat="45.39229" lon="3.75575">
        <ele>639.79998779297</ele>
        <time>2013-04-03T16:47:26Z</time>
      </trkpt>
      <trkpt lat="45.39229" lon="3.75568">
        <ele>640.09997558594</ele>
        <time>2013-04-03T16:47:28Z</time>
      </trkpt>
      <trkpt lat="45.3923" lon="3.7556">
        <ele>639.79998779297</ele>
        <time>2013-04-03T16:47:30Z</time>
      </trkpt>
      <trkpt lat="45.39231" lon="3.75552">
        <ele>639.09997558594</ele>
        <time>2013-04-03T16:47:33Z</time>
      </trkpt>
      <trkpt lat="45.39232" lon="3.75543">
        <ele>639.5</ele>
        <time>2013-04-03T16:47:35Z</time>
      </trkpt>
      <trkpt lat="45.39233" lon="3.75536">
        <ele>639.09997558594</ele>
        <time>2013-04-03T16:47:37Z</time>
      </trkpt>
      <trkpt lat="45.39234" lon="3.75528">
        <ele>639.29998779297</ele>
        <time>2013-04-03T16:47:40Z</time>
      </trkpt>
      <trkpt lat="45.39233" lon="3.75522">
        <ele>638.40002441406</ele>
        <time>2013-04-03T16:47:42Z</time>
      </trkpt>
      <trkpt lat="45.39234" lon="3.75512">
        <ele>638.20001220703</ele>
        <time>2013-04-03T16:47:45Z</time>
      </trkpt>
      <trkpt lat="45.39235" lon="3.75503">
        <ele>637.90002441406</ele>
        <time>2013-04-03T16:47:48Z</time>
      </trkpt>
      <trkpt lat="45.39236" lon="3.75495">
        <ele>637.29998779297</ele>
        <time>2013-04-03T16:47:51Z</time>
      </trkpt>
      <trkpt lat="45.39237" lon="3.75479">
        <ele>637.09997558594</ele>
        <time>2013-04-03T16:47:56Z</time>
      </trkpt>
      <trkpt lat="45.39237" lon="3.7547">
        <ele>636.90002441406</ele>
        <time>2013-04-03T16:47:59Z</time>
      </trkpt>
      <trkpt lat="45.39238" lon="3.75461">
        <ele>637.5</ele>
        <time>2013-04-03T16:48:02Z</time>
      </trkpt>
      <trkpt lat="45.39238" lon="3.75453">
        <ele>634.90002441406</ele>
        <time>2013-04-03T16:48:05Z</time>
      </trkpt>
      <trkpt lat="45.39238" lon="3.75445">
        <ele>634.40002441406</ele>
        <time>2013-04-03T16:48:08Z</time>
      </trkpt>
      <trkpt lat="45.39239" lon="3.75432">
        <ele>635.79998779297</ele>
        <time>2013-04-03T16:48:12Z</time>
      </trkpt>
      <trkpt lat="45.39239" lon="3.75425">
        <ele>636.20001220703</ele>
        <time>2013-04-03T16:48:14Z</time>
      </trkpt>
      <trkpt lat="45.3924" lon="3.75415">
        <ele>637.5</ele>
        <time>2013-04-03T16:48:17Z</time>
      </trkpt>
      <trkpt lat="45.39239" lon="3.75406">
        <ele>637.29998779297</ele>
        <time>2013-04-03T16:48:20Z</time>
      </trkpt>
      <trkpt lat="45.3924" lon="3.75399">
        <ele>637.79998779297</ele>
        <time>2013-04-03T16:48:22Z</time>
      </trkpt>
      <trkpt lat="45.3924" lon="3.75389">
        <ele>636.70001220703</ele>
        <time>2013-04-03T16:48:25Z</time>
      </trkpt>
      <trkpt lat="45.3924" lon="3.75383">
        <ele>634.70001220703</ele>
        <time>2013-04-03T16:48:28Z</time>
      </trkpt>
      <trkpt lat="45.39241" lon="3.75369">
        <ele>636.29998779297</ele>
        <time>2013-04-03T16:48:32Z</time>
      </trkpt>
      <trkpt lat="45.39241" lon="3.75361">
        <ele>636.79998779297</ele>
        <time>2013-04-03T16:48:35Z</time>
      </trkpt>
      <trkpt lat="45.39242" lon="3.75354">
        <ele>638.20001220703</ele>
        <time>2013-04-03T16:48:37Z</time>
      </trkpt>
      <trkpt lat="45.39241" lon="3.75345">
        <ele>637.90002441406</ele>
        <time>2013-04-03T16:48:40Z</time>
      </trkpt>
      <trkpt lat="45.39241" lon="3.75338">
        <ele>638.90002441406</ele>
        <time>2013-04-03T16:48:42Z</time>
      </trkpt>
      <trkpt lat="45.39242" lon="3.75331">
        <ele>638.5</ele>
        <time>2013-04-03T16:48:44Z</time>
      </trkpt>
      <trkpt lat="45.39241" lon="3.75324">
        <ele>638.40002441406</ele>
        <time>2013-04-03T16:48:46Z</time>
      </trkpt>
      <trkpt lat="45.39241" lon="3.75315">
        <ele>637.20001220703</ele>
        <time>2013-04-03T16:48:50Z</time>
      </trkpt>
      <trkpt lat="45.3924" lon="3.75307">
        <ele>635.40002441406</ele>
        <time>2013-04-03T16:48:53Z</time>
      </trkpt>
      <trkpt lat="45.39239" lon="3.75299">
        <ele>636.29998779297</ele>
        <time>2013-04-03T16:48:55Z</time>
      </trkpt>
      <trkpt lat="45.39238" lon="3.7529">
        <ele>636</ele>
        <time>2013-04-03T16:48:58Z</time>
      </trkpt>
      <trkpt lat="45.39237" lon="3.75282">
        <ele>637.20001220703</ele>
        <time>2013-04-03T16:49:01Z</time>
      </trkpt>
      <trkpt lat="45.39236" lon="3.75273">
        <ele>640.40002441406</ele>
        <time>2013-04-03T16:49:03Z</time>
      </trkpt>
      <trkpt lat="45.39235" lon="3.75267">
        <ele>639.5</ele>
        <time>2013-04-03T16:49:06Z</time>
      </trkpt>
      <trkpt lat="45.39233" lon="3.75259">
        <ele>639.70001220703</ele>
        <time>2013-04-03T16:49:09Z</time>
      </trkpt>
      <trkpt lat="45.39231" lon="3.75252">
        <ele>639.59997558594</ele>
        <time>2013-04-03T16:49:12Z</time>
      </trkpt>
      <trkpt lat="45.39229" lon="3.75243">
        <ele>638.70001220703</ele>
        <time>2013-04-03T16:49:15Z</time>
      </trkpt>
      <trkpt lat="45.39227" lon="3.75237">
        <ele>637.5</ele>
        <time>2013-04-03T16:49:17Z</time>
      </trkpt>
      <trkpt lat="45.39225" lon="3.75231">
        <ele>635.59997558594</ele>
        <time>2013-04-03T16:49:20Z</time>
      </trkpt>
      <trkpt lat="45.39225" lon="3.75223">
        <ele>636.29998779297</ele>
        <time>2013-04-03T16:49:23Z</time>
      </trkpt>
      <trkpt lat="45.39223" lon="3.75216">
        <ele>635.5</ele>
        <time>2013-04-03T16:49:26Z</time>
      </trkpt>
      <trkpt lat="45.39221" lon="3.75209">
        <ele>633.5</ele>
        <time>2013-04-03T16:49:29Z</time>
      </trkpt>
      <trkpt lat="45.39219" lon="3.75201">
        <ele>634.09997558594</ele>
        <time>2013-04-03T16:49:32Z</time>
      </trkpt>
      <trkpt lat="45.39217" lon="3.75194">
        <ele>634.29998779297</ele>
        <time>2013-04-03T16:49:35Z</time>
      </trkpt>
      <trkpt lat="45.39214" lon="3.75185">
        <ele>633.90002441406</ele>
        <time>2013-04-03T16:49:38Z</time>
      </trkpt>
      <trkpt lat="45.39213" lon="3.75173">
        <ele>636.09997558594</ele>
        <time>2013-04-03T16:49:42Z</time>
      </trkpt>
      <trkpt lat="45.39212" lon="3.75164">
        <ele>635.5</ele>
        <time>2013-04-03T16:49:45Z</time>
      </trkpt>
      <trkpt lat="45.39211" lon="3.75156">
        <ele>634.70001220703</ele>
        <time>2013-04-03T16:49:48Z</time>
      </trkpt>
      <trkpt lat="45.39211" lon="3.75147">
        <ele>635.40002441406</ele>
        <time>2013-04-03T16:49:51Z</time>
      </trkpt>
      <trkpt lat="45.39211" lon="3.75138">
        <ele>636.70001220703</ele>
        <time>2013-04-03T16:49:53Z</time>
      </trkpt>
      <trkpt lat="45.3921" lon="3.75132">
        <ele>635.70001220703</ele>
        <time>2013-04-03T16:49:56Z</time>
      </trkpt>
      <trkpt lat="45.39211" lon="3.75124">
        <ele>636.40002441406</ele>
        <time>2013-04-03T16:49:58Z</time>
      </trkpt>
      <trkpt lat="45.39211" lon="3.75115">
        <ele>635.40002441406</ele>
        <time>2013-04-03T16:50:01Z</time>
      </trkpt>
      <trkpt lat="45.39211" lon="3.75105">
        <ele>635.5</ele>
        <time>2013-04-03T16:50:04Z</time>
      </trkpt>
      <trkpt lat="45.39212" lon="3.75098">
        <ele>636.59997558594</ele>
        <time>2013-04-03T16:50:06Z</time>
      </trkpt>
      <trkpt lat="45.39211" lon="3.75091">
        <ele>635.90002441406</ele>
        <time>2013-04-03T16:50:09Z</time>
      </trkpt>
      <trkpt lat="45.39211" lon="3.75081">
        <ele>636.29998779297</ele>
        <time>2013-04-03T16:50:12Z</time>
      </trkpt>
      <trkpt lat="45.3921" lon="3.75074">
        <ele>635.90002441406</ele>
        <time>2013-04-03T16:50:15Z</time>
      </trkpt>
      <trkpt lat="45.39211" lon="3.75064">
        <ele>636</ele>
        <time>2013-04-03T16:50:18Z</time>
      </trkpt>
      <trkpt lat="45.39211" lon="3.75055">
        <ele>635.59997558594</ele>
        <time>2013-04-03T16:50:21Z</time>
      </trkpt>
      <trkpt lat="45.3921" lon="3.75046">
        <ele>635.09997558594</ele>
        <time>2013-04-03T16:50:24Z</time>
      </trkpt>
      <trkpt lat="45.3921" lon="3.75037">
        <ele>635.09997558594</ele>
        <time>2013-04-03T16:50:27Z</time>
      </trkpt>
      <trkpt lat="45.39211" lon="3.75029">
        <ele>635.59997558594</ele>
        <time>2013-04-03T16:50:30Z</time>
      </trkpt>
      <trkpt lat="45.39211" lon="3.75019">
        <ele>635</ele>
        <time>2013-04-03T16:50:33Z</time>
      </trkpt>
      <trkpt lat="45.39212" lon="3.7501">
        <ele>635.79998779297</ele>
        <time>2013-04-03T16:50:36Z</time>
      </trkpt>
      <trkpt lat="45.39213" lon="3.75">
        <ele>636.59997558594</ele>
        <time>2013-04-03T16:50:39Z</time>
      </trkpt>
      <trkpt lat="45.39214" lon="3.74992">
        <ele>636.90002441406</ele>
        <time>2013-04-03T16:50:42Z</time>
      </trkpt>
      <trkpt lat="45.39213" lon="3.74985">
        <ele>637.29998779297</ele>
        <time>2013-04-03T16:50:44Z</time>
      </trkpt>
      <trkpt lat="45.39214" lon="3.74979">
        <ele>638.29998779297</ele>
        <time>2013-04-03T16:50:46Z</time>
      </trkpt>
      <trkpt lat="45.39214" lon="3.74971">
        <ele>640.40002441406</ele>
        <time>2013-04-03T16:50:48Z</time>
      </trkpt>
      <trkpt lat="45.39215" lon="3.74962">
        <ele>639.40002441406</ele>
        <time>2013-04-03T16:50:53Z</time>
      </trkpt>
      <trkpt lat="45.39215" lon="3.74951">
        <ele>641</ele>
        <time>2013-04-03T16:50:55Z</time>
      </trkpt>
      <trkpt lat="45.39216" lon="3.74943">
        <ele>640.90002441406</ele>
        <time>2013-04-03T16:50:58Z</time>
      </trkpt>
      <trkpt lat="45.39215" lon="3.74936">
        <ele>640.09997558594</ele>
        <time>2013-04-03T16:51:01Z</time>
      </trkpt>
      <trkpt lat="45.39212" lon="3.74929">
        <ele>640.79998779297</ele>
        <time>2013-04-03T16:51:07Z</time>
      </trkpt>
      <trkpt lat="45.39209" lon="3.74924">
        <ele>642</ele>
        <time>2013-04-03T16:51:10Z</time>
      </trkpt>
      <trkpt lat="45.39205" lon="3.74918">
        <ele>638.70001220703</ele>
        <time>2013-04-03T16:51:16Z</time>
      </trkpt>
      <trkpt lat="45.39202" lon="3.74912">
        <ele>637.09997558594</ele>
        <time>2013-04-03T16:51:20Z</time>
      </trkpt>
      <trkpt lat="45.39201" lon="3.74899">
        <ele>637.90002441406</ele>
        <time>2013-04-03T16:51:26Z</time>
      </trkpt>
      <trkpt lat="45.39198" lon="3.74883">
        <ele>642.90002441406</ele>
        <time>2013-04-03T16:51:31Z</time>
      </trkpt>
      <trkpt lat="45.39197" lon="3.74875">
        <ele>642.70001220703</ele>
        <time>2013-04-03T16:51:34Z</time>
      </trkpt>
      <trkpt lat="45.39195" lon="3.74869">
        <ele>641</ele>
        <time>2013-04-03T16:51:39Z</time>
      </trkpt>
      <trkpt lat="45.3919" lon="3.74863">
        <ele>640.29998779297</ele>
        <time>2013-04-03T16:51:45Z</time>
      </trkpt>
      <trkpt lat="45.39183" lon="3.74864">
        <ele>638.79998779297</ele>
        <time>2013-04-03T16:51:48Z</time>
      </trkpt>
      <trkpt lat="45.3918" lon="3.74858">
        <ele>639.70001220703</ele>
        <time>2013-04-03T16:51:51Z</time>
      </trkpt>
      <trkpt lat="45.39181" lon="3.74851">
        <ele>640.20001220703</ele>
        <time>2013-04-03T16:51:53Z</time>
      </trkpt>
      <trkpt lat="45.3918" lon="3.74843">
        <ele>638.90002441406</ele>
        <time>2013-04-03T16:51:55Z</time>
      </trkpt>
      <trkpt lat="45.39175" lon="3.74844">
        <ele>639.59997558594</ele>
        <time>2013-04-03T16:51:58Z</time>
      </trkpt>
      <trkpt lat="45.3917" lon="3.74843">
        <ele>638</ele>
        <time>2013-04-03T16:52:02Z</time>
      </trkpt>
      <trkpt lat="45.39159" lon="3.74843">
        <ele>639.09997558594</ele>
        <time>2013-04-03T16:52:11Z</time>
      </trkpt>
      <trkpt lat="45.39155" lon="3.74848">
        <ele>639</ele>
        <time>2013-04-03T16:52:14Z</time>
      </trkpt>
      <trkpt lat="45.39148" lon="3.74849">
        <ele>638</ele>
        <time>2013-04-03T16:52:17Z</time>
      </trkpt>
      <trkpt lat="45.39143" lon="3.7485">
        <ele>638.70001220703</ele>
        <time>2013-04-03T16:52:20Z</time>
      </trkpt>
      <trkpt lat="45.39137" lon="3.74851">
        <ele>638.79998779297</ele>
        <time>2013-04-03T16:52:23Z</time>
      </trkpt>
      <trkpt lat="45.39131" lon="3.74853">
        <ele>638</ele>
        <time>2013-04-03T16:52:27Z</time>
      </trkpt>
      <trkpt lat="45.39121" lon="3.74855">
        <ele>640</ele>
        <time>2013-04-03T16:52:36Z</time>
      </trkpt>
      <trkpt lat="45.39119" lon="3.74861">
        <ele>640.5</ele>
        <time>2013-04-03T16:52:42Z</time>
      </trkpt>
      <trkpt lat="45.39111" lon="3.7486">
        <ele>639.5</ele>
        <time>2013-04-03T16:52:45Z</time>
      </trkpt>
      <trkpt lat="45.39107" lon="3.74863">
        <ele>638.29998779297</ele>
        <time>2013-04-03T16:52:49Z</time>
      </trkpt>
      <trkpt lat="45.39101" lon="3.74863">
        <ele>638.40002441406</ele>
        <time>2013-04-03T16:52:52Z</time>
      </trkpt>
      <trkpt lat="45.39096" lon="3.74861">
        <ele>636.90002441406</ele>
        <time>2013-04-03T16:52:57Z</time>
      </trkpt>
      <trkpt lat="45.39091" lon="3.74868">
        <ele>637.70001220703</ele>
        <time>2013-04-03T16:53:03Z</time>
      </trkpt>
      <trkpt lat="45.39083" lon="3.74872">
        <ele>644</ele>
        <time>2013-04-03T16:53:13Z</time>
      </trkpt>
      <trkpt lat="45.39077" lon="3.74871">
        <ele>646.90002441406</ele>
        <time>2013-04-03T16:53:16Z</time>
      </trkpt>
      <trkpt lat="45.39073" lon="3.74871">
        <ele>645.40002441406</ele>
        <time>2013-04-03T16:53:18Z</time>
      </trkpt>
      <trkpt lat="45.39068" lon="3.7487">
        <ele>644.59997558594</ele>
        <time>2013-04-03T16:53:22Z</time>
      </trkpt>
      <trkpt lat="45.39062" lon="3.74867">
        <ele>645.79998779297</ele>
        <time>2013-04-03T16:53:27Z</time>
      </trkpt>
      <trkpt lat="45.39057" lon="3.74866">
        <ele>645.70001220703</ele>
        <time>2013-04-03T16:53:35Z</time>
      </trkpt>
      <trkpt lat="45.39051" lon="3.74866">
        <ele>644.70001220703</ele>
        <time>2013-04-03T16:53:39Z</time>
      </trkpt>
      <trkpt lat="45.39046" lon="3.74864">
        <ele>650.09997558594</ele>
        <time>2013-04-03T16:53:44Z</time>
      </trkpt>
      <trkpt lat="45.39037" lon="3.74867">
        <ele>644.09997558594</ele>
        <time>2013-04-03T16:53:48Z</time>
      </trkpt>
      <trkpt lat="45.39032" lon="3.74864">
        <ele>643.29998779297</ele>
        <time>2013-04-03T16:53:51Z</time>
      </trkpt>
      <trkpt lat="45.39026" lon="3.74863">
        <ele>643.20001220703</ele>
        <time>2013-04-03T16:53:55Z</time>
      </trkpt>
      <trkpt lat="45.39021" lon="3.74862">
        <ele>641.59997558594</ele>
        <time>2013-04-03T16:53:58Z</time>
      </trkpt>
      <trkpt lat="45.39016" lon="3.74862">
        <ele>642.40002441406</ele>
        <time>2013-04-03T16:54:00Z</time>
      </trkpt>
      <trkpt lat="45.39011" lon="3.74861">
        <ele>643.20001220703</ele>
        <time>2013-04-03T16:54:03Z</time>
      </trkpt>
      <trkpt lat="45.38997" lon="3.74864">
        <ele>641.59997558594</ele>
        <time>2013-04-03T16:54:10Z</time>
      </trkpt>
      <trkpt lat="45.38992" lon="3.74863">
        <ele>641.29998779297</ele>
        <time>2013-04-03T16:54:12Z</time>
      </trkpt>
      <trkpt lat="45.38986" lon="3.74864">
        <ele>642.40002441406</ele>
        <time>2013-04-03T16:54:16Z</time>
      </trkpt>
      <trkpt lat="45.38981" lon="3.74861">
        <ele>643.5</ele>
        <time>2013-04-03T16:54:20Z</time>
      </trkpt>
      <trkpt lat="45.38974" lon="3.74863">
        <ele>644</ele>
        <time>2013-04-03T16:54:22Z</time>
      </trkpt>
      <trkpt lat="45.38967" lon="3.74862">
        <ele>644.5</ele>
        <time>2013-04-03T16:54:23Z</time>
      </trkpt>
      <trkpt lat="45.38961" lon="3.74863">
        <ele>643.40002441406</ele>
        <time>2013-04-03T16:54:25Z</time>
      </trkpt>
      <trkpt lat="45.38956" lon="3.74867">
        <ele>646.79998779297</ele>
        <time>2013-04-03T16:54:31Z</time>
      </trkpt>
      <trkpt lat="45.38951" lon="3.74866">
        <ele>646.59997558594</ele>
        <time>2013-04-03T16:54:33Z</time>
      </trkpt>
      <trkpt lat="45.38946" lon="3.74868">
        <ele>643.90002441406</ele>
        <time>2013-04-03T16:54:37Z</time>
      </trkpt>
      <trkpt lat="45.38941" lon="3.74871">
        <ele>645</ele>
        <time>2013-04-03T16:54:39Z</time>
      </trkpt>
      <trkpt lat="45.38936" lon="3.74873">
        <ele>645.40002441406</ele>
        <time>2013-04-03T16:54:42Z</time>
      </trkpt>
      <trkpt lat="45.38932" lon="3.74875">
        <ele>645</ele>
        <time>2013-04-03T16:54:45Z</time>
      </trkpt>
      <trkpt lat="45.38922" lon="3.74877">
        <ele>645.20001220703</ele>
        <time>2013-04-03T16:54:48Z</time>
      </trkpt>
      <trkpt lat="45.38914" lon="3.74876">
        <ele>644.90002441406</ele>
        <time>2013-04-03T16:54:54Z</time>
      </trkpt>
      <trkpt lat="45.38908" lon="3.74881">
        <ele>646.09997558594</ele>
        <time>2013-04-03T16:54:58Z</time>
      </trkpt>
      <trkpt lat="45.38901" lon="3.74882">
        <ele>645.09997558594</ele>
        <time>2013-04-03T16:55:01Z</time>
      </trkpt>
      <trkpt lat="45.38895" lon="3.74881">
        <ele>644.5</ele>
        <time>2013-04-03T16:55:03Z</time>
      </trkpt>
      <trkpt lat="45.3889" lon="3.74883">
        <ele>644.70001220703</ele>
        <time>2013-04-03T16:55:05Z</time>
      </trkpt>
      <trkpt lat="45.38882" lon="3.74879">
        <ele>643.09997558594</ele>
        <time>2013-04-03T16:55:08Z</time>
      </trkpt>
      <trkpt lat="45.38874" lon="3.74881">
        <ele>641.70001220703</ele>
        <time>2013-04-03T16:55:12Z</time>
      </trkpt>
      <trkpt lat="45.3886" lon="3.74874">
        <ele>641.5</ele>
        <time>2013-04-03T16:55:17Z</time>
      </trkpt>
      <trkpt lat="45.38854" lon="3.74876">
        <ele>647.20001220703</ele>
        <time>2013-04-03T16:55:21Z</time>
      </trkpt>
      <trkpt lat="45.38848" lon="3.74876">
        <ele>647.90002441406</ele>
        <time>2013-04-03T16:55:23Z</time>
      </trkpt>
      <trkpt lat="45.38843" lon="3.74875">
        <ele>650.29998779297</ele>
        <time>2013-04-03T16:55:25Z</time>
      </trkpt>
      <trkpt lat="45.38837" lon="3.74877">
        <ele>650</ele>
        <time>2013-04-03T16:55:28Z</time>
      </trkpt>
      <trkpt lat="45.38832" lon="3.74873">
        <ele>649.29998779297</ele>
        <time>2013-04-03T16:55:30Z</time>
      </trkpt>
      <trkpt lat="45.38822" lon="3.74875">
        <ele>647.5</ele>
        <time>2013-04-03T16:55:32Z</time>
      </trkpt>
      <trkpt lat="45.38814" lon="3.74873">
        <ele>648.5</ele>
        <time>2013-04-03T16:55:35Z</time>
      </trkpt>
      <trkpt lat="45.38809" lon="3.74876">
        <ele>647.40002441406</ele>
        <time>2013-04-03T16:55:39Z</time>
      </trkpt>
      <trkpt lat="45.38804" lon="3.74878">
        <ele>647.5</ele>
        <time>2013-04-03T16:55:42Z</time>
      </trkpt>
      <trkpt lat="45.388" lon="3.74882">
        <ele>648.40002441406</ele>
        <time>2013-04-03T16:55:45Z</time>
      </trkpt>
      <trkpt lat="45.38795" lon="3.74886">
        <ele>647.90002441406</ele>
        <time>2013-04-03T16:55:48Z</time>
      </trkpt>
      <trkpt lat="45.38789" lon="3.74891">
        <ele>645.29998779297</ele>
        <time>2013-04-03T16:55:53Z</time>
      </trkpt>
      <trkpt lat="45.38786" lon="3.749">
        <ele>645.09997558594</ele>
        <time>2013-04-03T16:55:57Z</time>
      </trkpt>
      <trkpt lat="45.38778" lon="3.74908">
        <ele>645.29998779297</ele>
        <time>2013-04-03T16:56:04Z</time>
      </trkpt>
      <trkpt lat="45.38775" lon="3.74915">
        <ele>644.49291992188</ele>
        <time>2013-04-03T16:56:05Z</time>
      </trkpt>
      <trkpt lat="45.38768" lon="3.74918">
        <ele>644.5</ele>
        <time>2013-04-03T16:56:09Z</time>
      </trkpt>
      <trkpt lat="45.3876" lon="3.74921">
        <ele>645.40002441406</ele>
        <time>2013-04-03T16:56:13Z</time>
      </trkpt>
      <trkpt lat="45.38752" lon="3.74924">
        <ele>642.20001220703</ele>
        <time>2013-04-03T16:56:17Z</time>
      </trkpt>
      <trkpt lat="45.38748" lon="3.74927">
        <ele>643.5</ele>
        <time>2013-04-03T16:56:20Z</time>
      </trkpt>
      <trkpt lat="45.38743" lon="3.74927">
        <ele>643.40002441406</ele>
        <time>2013-04-03T16:56:22Z</time>
      </trkpt>
      <trkpt lat="45.38732" lon="3.74933">
        <ele>645.59997558594</ele>
        <time>2013-04-03T16:56:27Z</time>
      </trkpt>
      <trkpt lat="45.38728" lon="3.74937">
        <ele>645.20001220703</ele>
        <time>2013-04-03T16:56:30Z</time>
      </trkpt>
      <trkpt lat="45.38722" lon="3.74941">
        <ele>646.20001220703</ele>
        <time>2013-04-03T16:56:32Z</time>
      </trkpt>
      <trkpt lat="45.38718" lon="3.74945">
        <ele>644.5</ele>
        <time>2013-04-03T16:56:36Z</time>
      </trkpt>
      <trkpt lat="45.38712" lon="3.74945">
        <ele>644.09997558594</ele>
        <time>2013-04-03T16:56:38Z</time>
      </trkpt>
      <trkpt lat="45.38706" lon="3.74947">
        <ele>645.09997558594</ele>
        <time>2013-04-03T16:56:40Z</time>
      </trkpt>
      <trkpt lat="45.38704" lon="3.74952">
        <ele>646</ele>
        <time>2013-04-03T16:56:42Z</time>
      </trkpt>
      <trkpt lat="45.38699" lon="3.74955">
        <ele>647.40002441406</ele>
        <time>2013-04-03T16:56:45Z</time>
      </trkpt>
      <trkpt lat="45.38695" lon="3.74957">
        <ele>646.29998779297</ele>
        <time>2013-04-03T16:56:48Z</time>
      </trkpt>
      <trkpt lat="45.3869" lon="3.74963">
        <ele>646</ele>
        <time>2013-04-03T16:56:51Z</time>
      </trkpt>
      <trkpt lat="45.38682" lon="3.74966">
        <ele>644.70001220703</ele>
        <time>2013-04-03T16:56:56Z</time>
      </trkpt>
      <trkpt lat="45.38677" lon="3.74969">
        <ele>644.79998779297</ele>
        <time>2013-04-03T16:56:58Z</time>
      </trkpt>
      <trkpt lat="45.38667" lon="3.7497">
        <ele>646.09997558594</ele>
        <time>2013-04-03T16:57:02Z</time>
      </trkpt>
      <trkpt lat="45.38661" lon="3.7497">
        <ele>646.29998779297</ele>
        <time>2013-04-03T16:57:05Z</time>
      </trkpt>
      <trkpt lat="45.38657" lon="3.74976">
        <ele>647.20001220703</ele>
        <time>2013-04-03T16:57:08Z</time>
      </trkpt>
      <trkpt lat="45.38652" lon="3.7498">
        <ele>646.59997558594</ele>
        <time>2013-04-03T16:57:13Z</time>
      </trkpt>
      <trkpt lat="45.38646" lon="3.74984">
        <ele>644.70001220703</ele>
        <time>2013-04-03T16:57:16Z</time>
      </trkpt>
      <trkpt lat="45.3864" lon="3.74987">
        <ele>645.40002441406</ele>
        <time>2013-04-03T16:57:19Z</time>
      </trkpt>
      <trkpt lat="45.38635" lon="3.74998">
        <ele>643.29998779297</ele>
        <time>2013-04-03T16:57:24Z</time>
      </trkpt>
      <trkpt lat="45.3863" lon="3.75003">
        <ele>643.09997558594</ele>
        <time>2013-04-03T16:57:28Z</time>
      </trkpt>
      <trkpt lat="45.38625" lon="3.75003">
        <ele>644.27325439453</ele>
        <time>2013-04-03T16:57:29Z</time>
      </trkpt>
      <trkpt lat="45.38619" lon="3.75008">
        <ele>645.20001220703</ele>
        <time>2013-04-03T16:57:32Z</time>
      </trkpt>
      <trkpt lat="45.38616" lon="3.75017">
        <ele>644.09997558594</ele>
        <time>2013-04-03T16:57:35Z</time>
      </trkpt>
      <trkpt lat="45.38614" lon="3.75026">
        <ele>642.40002441406</ele>
        <time>2013-04-03T16:57:39Z</time>
      </trkpt>
      <trkpt lat="45.38607" lon="3.7503">
        <ele>640.20001220703</ele>
        <time>2013-04-03T16:57:42Z</time>
      </trkpt>
      <trkpt lat="45.38603" lon="3.75032">
        <ele>639.90002441406</ele>
        <time>2013-04-03T16:57:44Z</time>
      </trkpt>
      <trkpt lat="45.38596" lon="3.75037">
        <ele>641.09997558594</ele>
        <time>2013-04-03T16:57:48Z</time>
      </trkpt>
      <trkpt lat="45.38592" lon="3.75044">
        <ele>642.09997558594</ele>
        <time>2013-04-03T16:57:51Z</time>
      </trkpt>
      <trkpt lat="45.38586" lon="3.75052">
        <ele>641.59997558594</ele>
        <time>2013-04-03T16:57:53Z</time>
      </trkpt>
      <trkpt lat="45.38583" lon="3.75057">
        <ele>639.5</ele>
        <time>2013-04-03T16:57:56Z</time>
      </trkpt>
      <trkpt lat="45.38587" lon="3.7506">
        <ele>643.29998779297</ele>
        <time>2013-04-03T16:58:00Z</time>
      </trkpt>
      <trkpt lat="45.38582" lon="3.75067">
        <ele>643.90002441406</ele>
        <time>2013-04-03T16:58:02Z</time>
      </trkpt>
      <trkpt lat="45.38578" lon="3.75069">
        <ele>644.70001220703</ele>
        <time>2013-04-03T16:58:04Z</time>
      </trkpt>
      <trkpt lat="45.38574" lon="3.75073">
        <ele>645</ele>
        <time>2013-04-03T16:58:06Z</time>
      </trkpt>
      <trkpt lat="45.38571" lon="3.75083">
        <ele>642.40002441406</ele>
        <time>2013-04-03T16:58:09Z</time>
      </trkpt>
      <trkpt lat="45.38566" lon="3.75085">
        <ele>642.5</ele>
        <time>2013-04-03T16:58:12Z</time>
      </trkpt>
      <trkpt lat="45.38561" lon="3.7509">
        <ele>643.09997558594</ele>
        <time>2013-04-03T16:58:17Z</time>
      </trkpt>
      <trkpt lat="45.38556" lon="3.75095">
        <ele>640.59997558594</ele>
        <time>2013-04-03T16:58:21Z</time>
      </trkpt>
      <trkpt lat="45.38552" lon="3.75097">
        <ele>641</ele>
        <time>2013-04-03T16:58:24Z</time>
      </trkpt>
      <trkpt lat="45.38548" lon="3.75101">
        <ele>640.29998779297</ele>
        <time>2013-04-03T16:58:26Z</time>
      </trkpt>
      <trkpt lat="45.38542" lon="3.75104">
        <ele>638.29998779297</ele>
        <time>2013-04-03T16:58:30Z</time>
      </trkpt>
      <trkpt lat="45.38538" lon="3.75107">
        <ele>638.29998779297</ele>
        <time>2013-04-03T16:58:33Z</time>
      </trkpt>
      <trkpt lat="45.38533" lon="3.7511">
        <ele>639.79998779297</ele>
        <time>2013-04-03T16:58:36Z</time>
      </trkpt>
      <trkpt lat="45.38527" lon="3.75114">
        <ele>640.29998779297</ele>
        <time>2013-04-03T16:58:39Z</time>
      </trkpt>
      <trkpt lat="45.3852" lon="3.75116">
        <ele>641.29998779297</ele>
        <time>2013-04-03T16:58:41Z</time>
      </trkpt>
      <trkpt lat="45.38514" lon="3.75117">
        <ele>644.70001220703</ele>
        <time>2013-04-03T16:58:44Z</time>
      </trkpt>
      <trkpt lat="45.38509" lon="3.75119">
        <ele>645.5</ele>
        <time>2013-04-03T16:58:46Z</time>
      </trkpt>
      <trkpt lat="45.38503" lon="3.75119">
        <ele>646.20001220703</ele>
        <time>2013-04-03T16:58:49Z</time>
      </trkpt>
      <trkpt lat="45.38498" lon="3.75122">
        <ele>645.5</ele>
        <time>2013-04-03T16:58:53Z</time>
      </trkpt>
      <trkpt lat="45.38493" lon="3.75119">
        <ele>648.59997558594</ele>
        <time>2013-04-03T16:58:56Z</time>
      </trkpt>
      <trkpt lat="45.38486" lon="3.75124">
        <ele>649.5</ele>
        <time>2013-04-03T16:59:01Z</time>
      </trkpt>
      <trkpt lat="45.38482" lon="3.75123">
        <ele>650</ele>
        <time>2013-04-03T16:59:03Z</time>
      </trkpt>
      <trkpt lat="45.38477" lon="3.75123">
        <ele>650.70001220703</ele>
        <time>2013-04-03T16:59:06Z</time>
      </trkpt>
      <trkpt lat="45.38471" lon="3.75127">
        <ele>649.5</ele>
        <time>2013-04-03T16:59:09Z</time>
      </trkpt>
      <trkpt lat="45.38467" lon="3.75132">
        <ele>647.20001220703</ele>
        <time>2013-04-03T16:59:11Z</time>
      </trkpt>
      <trkpt lat="45.38461" lon="3.75134">
        <ele>644.20001220703</ele>
        <time>2013-04-03T16:59:15Z</time>
      </trkpt>
      <trkpt lat="45.38457" lon="3.75136">
        <ele>643.70001220703</ele>
        <time>2013-04-03T16:59:19Z</time>
      </trkpt>
      <trkpt lat="45.38452" lon="3.75136">
        <ele>651.29998779297</ele>
        <time>2013-04-03T16:59:29Z</time>
      </trkpt>
      <trkpt lat="45.38447" lon="3.75132">
        <ele>654.29998779297</ele>
        <time>2013-04-03T16:59:32Z</time>
      </trkpt>
      <trkpt lat="45.38443" lon="3.75128">
        <ele>657.59997558594</ele>
        <time>2013-04-03T16:59:36Z</time>
      </trkpt>
      <trkpt lat="45.38437" lon="3.7513">
        <ele>659.29998779297</ele>
        <time>2013-04-03T16:59:39Z</time>
      </trkpt>
      <trkpt lat="45.38433" lon="3.75123">
        <ele>658.59997558594</ele>
        <time>2013-04-03T16:59:43Z</time>
      </trkpt>
      <trkpt lat="45.38429" lon="3.75119">
        <ele>659.29998779297</ele>
        <time>2013-04-03T16:59:46Z</time>
      </trkpt>
      <trkpt lat="45.38424" lon="3.7512">
        <ele>658.09997558594</ele>
        <time>2013-04-03T16:59:54Z</time>
      </trkpt>
      <trkpt lat="45.3842" lon="3.75116">
        <ele>657.90002441406</ele>
        <time>2013-04-03T17:00:01Z</time>
      </trkpt>
      <trkpt lat="45.3841" lon="3.75109">
        <ele>656.70001220703</ele>
        <time>2013-04-03T17:00:09Z</time>
      </trkpt>
      <trkpt lat="45.38407" lon="3.75103">
        <ele>658</ele>
        <time>2013-04-03T17:00:15Z</time>
      </trkpt>
      <trkpt lat="45.38403" lon="3.75098">
        <ele>659.5</ele>
        <time>2013-04-03T17:00:19Z</time>
      </trkpt>
      <trkpt lat="45.384" lon="3.75092">
        <ele>660.79998779297</ele>
        <time>2013-04-03T17:00:22Z</time>
      </trkpt>
      <trkpt lat="45.38396" lon="3.75088">
        <ele>664.20001220703</ele>
        <time>2013-04-03T17:00:28Z</time>
      </trkpt>
      <trkpt lat="45.38392" lon="3.75093">
        <ele>663.5</ele>
        <time>2013-04-03T17:00:34Z</time>
      </trkpt>
      <trkpt lat="45.3838" lon="3.75098">
        <ele>662</ele>
        <time>2013-04-03T17:00:42Z</time>
      </trkpt>
      <trkpt lat="45.38371" lon="3.75097">
        <ele>658.70001220703</ele>
        <time>2013-04-03T17:00:50Z</time>
      </trkpt>
      <trkpt lat="45.38368" lon="3.75104">
        <ele>657.70001220703</ele>
        <time>2013-04-03T17:00:53Z</time>
      </trkpt>
      <trkpt lat="45.38362" lon="3.75108">
        <ele>659.20001220703</ele>
        <time>2013-04-03T17:00:55Z</time>
      </trkpt>
      <trkpt lat="45.38359" lon="3.75115">
        <ele>661.90002441406</ele>
        <time>2013-04-03T17:01:01Z</time>
      </trkpt>
      <trkpt lat="45.38361" lon="3.75121">
        <ele>660.79998779297</ele>
        <time>2013-04-03T17:01:06Z</time>
      </trkpt>
      <trkpt lat="45.38362" lon="3.75129">
        <ele>663.59997558594</ele>
        <time>2013-04-03T17:01:10Z</time>
      </trkpt>
      <trkpt lat="45.38363" lon="3.75135">
        <ele>663.79998779297</ele>
        <time>2013-04-03T17:01:14Z</time>
      </trkpt>
      <trkpt lat="45.38366" lon="3.7514">
        <ele>656.90002441406</ele>
        <time>2013-04-03T17:01:20Z</time>
      </trkpt>
      <trkpt lat="45.38369" lon="3.75147">
        <ele>653</ele>
        <time>2013-04-03T17:01:25Z</time>
      </trkpt>
      <trkpt lat="45.38369" lon="3.75154">
        <ele>654.40002441406</ele>
        <time>2013-04-03T17:01:30Z</time>
      </trkpt>
    </trkseg>
  </trk>
</gpx>